ARG2564 NZAA-SAWH
Flight info
| Callsign | ARG2564 |
|---|---|
| Flight time | 5h 0m |
| Altitude | 32000 |
| Route | REKIS DCT NR/N0492F330 DCT 42S80 DCT 43S80 DCT 44S80 DCT 45S80 DCT 600521S1602012W/N0485F350 653912S1300903W 660300S1025944W/N0487F370 62S080W/N0475F380 DCT 56S070W DCT USU |
| Aircraft | B77W/H-SDE1E2E3FGHIJ2J3J4J5M1RWXY/LB1D1 |
Departure
| Time | 2026-05-07 19:39 |
|---|---|
| Airport | Auckland International Airport (NZAA) |
Arrival
| Time | 2026-05-08 00:40 |
|---|---|
| Airport | Ushuaia - Malvinas Argentinas International Airport (SAWH) |
| Time | Latitude | Longitude | Altitude | Speed | Heading |
|---|---|---|---|---|---|
| 2026-05-07 19:19 | -37.00830 | 174.78279 | 30 ft | 0 kts | 324° |
| 2026-05-07 19:33 | -37.00832 | 174.78281 | 30 ft | 2 kts | 324° |
| 2026-05-07 19:33 | -37.00853 | 174.78300 | 30 ft | 4 kts | 323° |
| 2026-05-07 19:34 | -37.00873 | 174.78322 | 30 ft | 4 kts | 305° |
| 2026-05-07 19:34 | -37.00883 | 174.78351 | 30 ft | 4 kts | 268° |
| 2026-05-07 19:34 | -37.00875 | 174.78376 | 30 ft | 2 kts | 213° |
| 2026-05-07 19:34 | -37.00873 | 174.78378 | 30 ft | 0 kts | 211° |
| 2026-05-07 19:36 | -37.00947 | 174.78359 | 30 ft | 22 kts | 174° |
| 2026-05-07 19:36 | -37.01091 | 174.78317 | 30 ft | 23 kts | 237° |
| 2026-05-07 19:36 | -37.01151 | 174.78128 | 30 ft | 23 kts | 250° |
| 2026-05-07 19:37 | -37.01206 | 174.77935 | 30 ft | 23 kts | 250° |
| 2026-05-07 19:37 | -37.01260 | 174.77742 | 30 ft | 23 kts | 252° |
| 2026-05-07 19:37 | -37.01311 | 174.77549 | 30 ft | 23 kts | 251° |
| 2026-05-07 19:37 | -37.01362 | 174.77355 | 30 ft | 23 kts | 251° |
| 2026-05-07 19:38 | -37.01419 | 174.77168 | 30 ft | 23 kts | 236° |
| 2026-05-07 19:38 | -37.01560 | 174.77091 | 30 ft | 18 kts | 175° |
| 2026-05-07 19:38 | -37.01591 | 174.77220 | 30 ft | 21 kts | 74° |
| 2026-05-07 19:38 | -37.01487 | 174.77601 | 30 ft | 83 kts | 70° |
| 2026-05-07 19:39 | -37.01210 | 174.78603 | 30 ft | 158 kts | 71° |
| 2026-05-07 19:39 | -37.00785 | 174.80149 | 50 ft | 210 kts | 71° |
| 2026-05-07 19:39 | -37.00329 | 174.81882 | 815 ft | 205 kts | 72° |
| 2026-05-07 19:39 | -37.00233 | 174.83648 | 1654 ft | 209 kts | 100° |
| 2026-05-07 19:40 | -37.00954 | 174.85245 | 2228 ft | 219 kts | 138° |
| 2026-05-07 19:40 | -37.02375 | 174.85984 | 2535 ft | 236 kts | 175° |
| 2026-05-07 19:40 | -37.04025 | 174.85741 | 3002 ft | 245 kts | 199° |
| 2026-05-07 19:40 | -37.05705 | 174.84972 | 3185 ft | 267 kts | 200° |
| 2026-05-07 19:41 | -37.07537 | 174.84433 | 3543 ft | 276 kts | 178° |
| 2026-05-07 19:41 | -37.09372 | 174.85072 | 3978 ft | 276 kts | 149° |
| 2026-05-07 19:41 | -37.11063 | 174.86285 | 3943 ft | 278 kts | 149° |
| 2026-05-07 19:41 | -37.12758 | 174.87444 | 3966 ft | 277 kts | 150° |
| 2026-05-07 19:42 | -37.14425 | 174.88671 | 4173 ft | 277 kts | 145° |
| 2026-05-07 19:42 | -37.16026 | 174.89972 | 4788 ft | 280 kts | 145° |
| 2026-05-07 19:42 | -37.17688 | 174.91317 | 4981 ft | 282 kts | 146° |
| 2026-05-07 19:42 | -37.19323 | 174.92627 | 4975 ft | 281 kts | 146° |
| 2026-05-07 19:43 | -37.21019 | 174.93866 | 4967 ft | 282 kts | 152° |
| 2026-05-07 19:43 | -37.22767 | 174.94944 | 4956 ft | 280 kts | 153° |
| 2026-05-07 19:43 | -37.24520 | 174.96001 | 4970 ft | 279 kts | 153° |
| 2026-05-07 19:43 | -37.26265 | 174.97070 | 4977 ft | 279 kts | 153° |
| 2026-05-07 19:44 | -37.28006 | 174.98153 | 4979 ft | 280 kts | 153° |
| 2026-05-07 19:44 | -37.29757 | 174.99250 | 4974 ft | 281 kts | 152° |
| 2026-05-07 19:44 | -37.31489 | 175.00376 | 4998 ft | 280 kts | 148° |
| 2026-05-07 19:44 | -37.33138 | 175.01693 | 5517 ft | 281 kts | 144° |
| 2026-05-07 19:45 | -37.34762 | 175.03078 | 6199 ft | 283 kts | 144° |
| 2026-05-07 19:45 | -37.36396 | 175.04486 | 6863 ft | 286 kts | 144° |
| 2026-05-07 19:45 | -37.38049 | 175.05912 | 7486 ft | 289 kts | 144° |
| 2026-05-07 19:45 | -37.39723 | 175.07350 | 8097 ft | 294 kts | 145° |
| 2026-05-07 19:46 | -37.41425 | 175.08803 | 8710 ft | 298 kts | 145° |
| 2026-05-07 19:46 | -37.43147 | 175.10266 | 9338 ft | 300 kts | 145° |
| 2026-05-07 19:46 | -37.44885 | 175.11744 | 9929 ft | 303 kts | 146° |
| 2026-05-07 19:46 | -37.46648 | 175.13237 | 10496 ft | 307 kts | 146° |
| 2026-05-07 19:47 | -37.48429 | 175.14744 | 11113 ft | 310 kts | 146° |
| 2026-05-07 19:47 | -37.50208 | 175.16250 | 11715 ft | 314 kts | 146° |
| 2026-05-07 19:47 | -37.52026 | 175.17791 | 12334 ft | 318 kts | 146° |
| 2026-05-07 19:47 | -37.53892 | 175.19375 | 12703 ft | 333 kts | 146° |
| 2026-05-07 19:48 | -37.55873 | 175.21052 | 12869 ft | 355 kts | 146° |
| 2026-05-07 19:48 | -37.57996 | 175.22849 | 13039 ft | 377 kts | 146° |
| 2026-05-07 19:48 | -37.60246 | 175.24755 | 13218 ft | 398 kts | 146° |
| 2026-05-07 19:48 | -37.62583 | 175.26741 | 13641 ft | 411 kts | 146° |
| 2026-05-07 19:49 | -37.64979 | 175.28776 | 14227 ft | 419 kts | 146° |
| 2026-05-07 19:49 | -37.67407 | 175.30840 | 14934 ft | 423 kts | 146° |
| 2026-05-07 19:49 | -37.69858 | 175.32925 | 15660 ft | 426 kts | 146° |
| 2026-05-07 19:49 | -37.72325 | 175.35027 | 16389 ft | 429 kts | 147° |
| 2026-05-07 19:50 | -37.74815 | 175.37151 | 17032 ft | 434 kts | 147° |
| 2026-05-07 19:50 | -37.77335 | 175.39300 | 17675 ft | 438 kts | 147° |
| 2026-05-07 19:50 | -37.79844 | 175.41441 | 18299 ft | 442 kts | 147° |
| 2026-05-07 19:50 | -37.82404 | 175.43629 | 18967 ft | 446 kts | 147° |
| 2026-05-07 19:51 | -37.84985 | 175.45835 | 19562 ft | 450 kts | 147° |
| 2026-05-07 19:51 | -37.87596 | 175.48069 | 20122 ft | 455 kts | 146° |
| 2026-05-07 19:51 | -37.90222 | 175.50319 | 20677 ft | 459 kts | 146° |
| 2026-05-07 19:51 | -37.92876 | 175.52595 | 21240 ft | 463 kts | 146° |
| 2026-05-07 19:52 | -37.95560 | 175.54899 | 21776 ft | 468 kts | 146° |
| 2026-05-07 19:52 | -37.98256 | 175.57224 | 22283 ft | 471 kts | 146° |
| 2026-05-07 19:52 | -38.00979 | 175.59566 | 22783 ft | 475 kts | 146° |
| 2026-05-07 19:52 | -38.03731 | 175.61928 | 23249 ft | 479 kts | 146° |
| 2026-05-07 19:53 | -38.06501 | 175.64309 | 23743 ft | 483 kts | 146° |
| 2026-05-07 19:53 | -38.09292 | 175.66712 | 24205 ft | 486 kts | 146° |
| 2026-05-07 19:53 | -38.12100 | 175.69136 | 24665 ft | 490 kts | 146° |
| 2026-05-07 19:53 | -38.14938 | 175.71588 | 25137 ft | 493 kts | 146° |
| 2026-05-07 19:54 | -38.17785 | 175.74050 | 25570 ft | 496 kts | 146° |
| 2026-05-07 19:54 | -38.19673 | 175.75685 | 25851 ft | 498 kts | 146° |
| 2026-05-07 19:54 | -38.22546 | 175.78173 | 26270 ft | 501 kts | 146° |
| 2026-05-07 19:54 | -38.25439 | 175.80681 | 26650 ft | 505 kts | 146° |
| 2026-05-07 19:55 | -38.28352 | 175.83209 | 27033 ft | 508 kts | 146° |
| 2026-05-07 19:55 | -38.31277 | 175.85749 | 27420 ft | 511 kts | 146° |
| 2026-05-07 19:55 | -38.34222 | 175.88308 | 27770 ft | 514 kts | 146° |
| 2026-05-07 19:55 | -38.37189 | 175.90889 | 28135 ft | 516 kts | 146° |
| 2026-05-07 19:56 | -38.40164 | 175.93481 | 28488 ft | 518 kts | 146° |
| 2026-05-07 19:56 | -38.43146 | 175.96083 | 28796 ft | 521 kts | 146° |
| 2026-05-07 19:56 | -38.46111 | 175.98671 | 29098 ft | 524 kts | 146° |
| 2026-05-07 19:56 | -38.49125 | 176.01304 | 29408 ft | 526 kts | 146° |
| 2026-05-07 19:57 | -38.52150 | 176.03950 | 29694 ft | 528 kts | 145° |
| 2026-05-07 19:57 | -38.55181 | 176.06604 | 29996 ft | 529 kts | 145° |
| 2026-05-07 19:57 | -38.58217 | 176.09265 | 30379 ft | 528 kts | 145° |
| 2026-05-07 19:57 | -38.61239 | 176.11916 | 30797 ft | 526 kts | 145° |
| 2026-05-07 19:58 | -38.64252 | 176.14565 | 31189 ft | 524 kts | 145° |
| 2026-05-07 19:58 | -38.67219 | 176.17173 | 31506 ft | 524 kts | 145° |
| 2026-05-07 19:58 | -38.70222 | 176.19815 | 31803 ft | 524 kts | 145° |
| 2026-05-07 19:58 | -38.73226 | 176.22460 | 32129 ft | 523 kts | 145° |
| 2026-05-07 19:59 | -38.76218 | 176.25098 | 32454 ft | 522 kts | 145° |
| 2026-05-07 19:59 | -38.79203 | 176.27734 | 32778 ft | 521 kts | 145° |
| 2026-05-07 19:59 | -38.82186 | 176.30372 | 32957 ft | 522 kts | 145° |
| 2026-05-07 19:59 | -38.85180 | 176.33022 | 32987 ft | 522 kts | 145° |
| 2026-05-07 20:00 | -38.91153 | 176.38313 | 33014 ft | 521 kts | 145° |
| 2026-05-07 20:00 | -38.97113 | 176.43607 | 33023 ft | 520 kts | 145° |
| 2026-05-07 20:01 | -39.03026 | 176.48869 | 33020 ft | 520 kts | 145° |
| 2026-05-07 20:01 | -39.09012 | 176.54206 | 33017 ft | 520 kts | 145° |
| 2026-05-07 20:02 | -39.14939 | 176.59501 | 33014 ft | 520 kts | 145° |
| 2026-05-07 20:02 | -39.20842 | 176.64786 | 33010 ft | 519 kts | 145° |
| 2026-05-07 20:03 | -39.26788 | 176.70124 | 33006 ft | 520 kts | 145° |
| 2026-05-07 20:03 | -39.32722 | 176.75459 | 33009 ft | 519 kts | 145° |
| 2026-05-07 20:04 | -39.38654 | 176.80806 | 33014 ft | 520 kts | 145° |
| 2026-05-07 20:04 | -39.44547 | 176.86139 | 33008 ft | 519 kts | 143° |
| 2026-05-07 20:05 | -39.50087 | 176.92160 | 33017 ft | 519 kts | 137° |
| 2026-05-07 20:05 | -39.55413 | 176.98478 | 33012 ft | 519 kts | 137° |
| 2026-05-07 20:06 | -39.60738 | 177.04807 | 33009 ft | 519 kts | 137° |
| 2026-05-07 20:06 | -39.66088 | 177.11108 | 33011 ft | 519 kts | 137° |
| 2026-05-07 20:07 | -39.71447 | 177.17407 | 33009 ft | 519 kts | 137° |
| 2026-05-07 20:07 | -39.76766 | 177.23672 | 33008 ft | 519 kts | 137° |
| 2026-05-07 20:08 | -39.82109 | 177.29985 | 33010 ft | 519 kts | 137° |
| 2026-05-07 20:08 | -39.87455 | 177.36309 | 33009 ft | 519 kts | 137° |
| 2026-05-07 20:09 | -39.92803 | 177.42649 | 33009 ft | 520 kts | 137° |
| 2026-05-07 20:10 | -40.00818 | 177.52187 | 33008 ft | 520 kts | 137° |
| 2026-05-07 20:10 | -40.06133 | 177.58528 | 33009 ft | 521 kts | 137° |
| 2026-05-07 20:11 | -40.11481 | 177.64921 | 33014 ft | 522 kts | 137° |
| 2026-05-07 20:11 | -40.16833 | 177.71333 | 33009 ft | 521 kts | 137° |
| 2026-05-07 20:12 | -40.22176 | 177.77749 | 33008 ft | 521 kts | 137° |
| 2026-05-07 20:12 | -40.27514 | 177.84175 | 32999 ft | 522 kts | 137° |
| 2026-05-07 20:13 | -40.32858 | 177.90624 | 32980 ft | 521 kts | 137° |
| 2026-05-07 20:13 | -40.38196 | 177.97073 | 32974 ft | 522 kts | 137° |
| 2026-05-07 20:14 | -40.43522 | 178.03528 | 32970 ft | 521 kts | 137° |
| 2026-05-07 20:14 | -40.48806 | 178.09949 | 32975 ft | 520 kts | 137° |
| 2026-05-07 20:15 | -40.54110 | 178.16405 | 32972 ft | 520 kts | 137° |
| 2026-05-07 20:15 | -40.59411 | 178.22872 | 32965 ft | 519 kts | 137° |
| 2026-05-07 20:16 | -40.64710 | 178.29352 | 32973 ft | 519 kts | 137° |
| 2026-05-07 20:16 | -40.70004 | 178.35836 | 32976 ft | 519 kts | 137° |
| 2026-05-07 20:17 | -40.75270 | 178.42308 | 32976 ft | 519 kts | 137° |
| 2026-05-07 20:17 | -40.80548 | 178.48808 | 32974 ft | 519 kts | 137° |
| 2026-05-07 20:18 | -40.85831 | 178.55325 | 32970 ft | 519 kts | 137° |
| 2026-05-07 20:18 | -40.91114 | 178.61858 | 32976 ft | 519 kts | 137° |
| 2026-05-07 20:19 | -40.96348 | 178.68348 | 32973 ft | 518 kts | 137° |
| 2026-05-07 20:19 | -41.01603 | 178.74879 | 32972 ft | 518 kts | 137° |
| 2026-05-07 20:20 | -41.06860 | 178.81427 | 32974 ft | 518 kts | 137° |
| 2026-05-07 20:20 | -41.12111 | 178.87979 | 32975 ft | 518 kts | 137° |
| 2026-05-07 20:21 | -41.17358 | 178.94543 | 32966 ft | 518 kts | 137° |
| 2026-05-07 20:21 | -41.22610 | 179.01128 | 32965 ft | 517 kts | 137° |
| 2026-05-07 20:22 | -41.27803 | 179.07656 | 32959 ft | 517 kts | 137° |
| 2026-05-07 20:22 | -41.33020 | 179.14228 | 32962 ft | 517 kts | 137° |
| 2026-05-07 20:23 | -41.38240 | 179.20820 | 32962 ft | 517 kts | 137° |
| 2026-05-07 20:23 | -41.43453 | 179.27418 | 32962 ft | 516 kts | 137° |
| 2026-05-07 20:24 | -41.48654 | 179.34016 | 32917 ft | 516 kts | 137° |
| 2026-05-07 20:24 | -41.53857 | 179.40632 | 32912 ft | 516 kts | 137° |
| 2026-05-07 20:25 | -41.59055 | 179.47258 | 32911 ft | 516 kts | 137° |
| 2026-05-07 20:25 | -41.64253 | 179.53898 | 32903 ft | 517 kts | 137° |
| 2026-05-07 20:26 | -41.69418 | 179.60513 | 32904 ft | 517 kts | 137° |
| 2026-05-07 20:26 | -41.74612 | 179.67179 | 32905 ft | 517 kts | 137° |
| 2026-05-07 20:27 | -41.79796 | 179.73851 | 32891 ft | 517 kts | 137° |
| 2026-05-07 20:27 | -41.84981 | 179.80537 | 32903 ft | 517 kts | 137° |
| 2026-05-07 20:28 | -41.90161 | 179.87234 | 32900 ft | 517 kts | 137° |
| 2026-05-07 20:28 | -41.95337 | 179.93941 | 32903 ft | 516 kts | 138° |
| 2026-05-07 20:28 | -41.98118 | 179.96954 | 32888 ft | 512 kts | 151° |
| 2026-05-07 20:29 | -42.01313 | 179.98987 | 32907 ft | 508 kts | 164° |
| 2026-05-07 20:29 | -42.04696 | -179.99899 | 32897 ft | 504 kts | 176° |
| 2026-05-07 20:29 | -42.08172 | -179.99739 | 32917 ft | 498 kts | 185° |
| 2026-05-07 20:30 | -42.15129 | -179.99907 | 32940 ft | 500 kts | 184° |
| 2026-05-07 20:30 | -42.22098 | -179.99990 | 32943 ft | 500 kts | 184° |
| 2026-05-07 20:31 | -42.29057 | 179.99995 | 32942 ft | 500 kts | 183° |
| 2026-05-07 20:31 | -42.36028 | -179.99998 | 32898 ft | 501 kts | 183° |
| 2026-05-07 20:32 | -42.42940 | -179.99991 | 32945 ft | 499 kts | 184° |
| 2026-05-07 20:32 | -42.49894 | -179.99992 | 32951 ft | 500 kts | 184° |
| 2026-05-07 20:33 | -42.56852 | -179.99993 | 32954 ft | 500 kts | 184° |
| 2026-05-07 20:33 | -42.63809 | -179.99993 | 32953 ft | 500 kts | 184° |
| 2026-05-07 20:34 | -42.70770 | -179.99995 | 32955 ft | 500 kts | 184° |
| 2026-05-07 20:34 | -42.77728 | -179.99996 | 32954 ft | 500 kts | 184° |
| 2026-05-07 20:35 | -42.84692 | -179.99997 | 32955 ft | 500 kts | 184° |
| 2026-05-07 20:35 | -42.91654 | -179.99999 | 32953 ft | 500 kts | 184° |
| 2026-05-07 20:36 | -42.98588 | -179.99999 | 32954 ft | 501 kts | 184° |
| 2026-05-07 20:36 | -43.05557 | -180.00000 | 32955 ft | 501 kts | 184° |
| 2026-05-07 20:37 | -43.12533 | -179.99997 | 32952 ft | 501 kts | 184° |
| 2026-05-07 20:37 | -43.19519 | -179.99998 | 32953 ft | 502 kts | 184° |
| 2026-05-07 20:38 | -43.26499 | -179.99999 | 32954 ft | 502 kts | 184° |
| 2026-05-07 20:38 | -43.33486 | -179.99999 | 32954 ft | 502 kts | 184° |
| 2026-05-07 20:39 | -43.40439 | -179.99999 | 32954 ft | 502 kts | 184° |
| 2026-05-07 20:39 | -43.47434 | -179.99999 | 32955 ft | 503 kts | 185° |
| 2026-05-07 20:40 | -43.54430 | -179.99999 | 32954 ft | 503 kts | 185° |
| 2026-05-07 20:40 | -43.61438 | -180.00000 | 32954 ft | 504 kts | 185° |
| 2026-05-07 20:41 | -43.68460 | -180.00000 | 32953 ft | 504 kts | 185° |
| 2026-05-07 20:41 | -43.75479 | -179.99998 | 32954 ft | 504 kts | 185° |
| 2026-05-07 20:42 | -43.82495 | -179.99999 | 32954 ft | 504 kts | 185° |
| 2026-05-07 20:42 | -43.89498 | -179.99999 | 32954 ft | 504 kts | 185° |
| 2026-05-07 20:43 | -43.96522 | -179.99999 | 32955 ft | 504 kts | 185° |
| 2026-05-07 20:43 | -44.03492 | -179.99999 | 32953 ft | 504 kts | 185° |
| 2026-05-07 20:44 | -44.10522 | -179.99999 | 32954 ft | 504 kts | 185° |
| 2026-05-07 20:44 | -44.17539 | -179.99998 | 32954 ft | 504 kts | 185° |
| 2026-05-07 20:45 | -44.24562 | -179.99998 | 32954 ft | 504 kts | 185° |
| 2026-05-07 20:45 | -44.30391 | -179.99998 | 32953 ft | 504 kts | 185° |
| 2026-05-07 20:46 | -44.37404 | -179.99999 | 32954 ft | 504 kts | 185° |
| 2026-05-07 20:46 | -44.44423 | -179.99997 | 32955 ft | 504 kts | 185° |
| 2026-05-07 20:47 | -44.51437 | -179.99998 | 32951 ft | 504 kts | 185° |
| 2026-05-07 20:47 | -44.58454 | -179.99998 | 32957 ft | 504 kts | 185° |
| 2026-05-07 20:48 | -44.65478 | 179.99999 | 32951 ft | 505 kts | 185° |
| 2026-05-07 20:48 | -44.72521 | 179.99999 | 32887 ft | 507 kts | 185° |
| 2026-05-07 20:49 | -44.79581 | -179.99999 | 32857 ft | 506 kts | 185° |
| 2026-05-07 20:49 | -44.86577 | -179.99998 | 32918 ft | 504 kts | 185° |
| 2026-05-07 20:50 | -44.93605 | 180.00000 | 32948 ft | 505 kts | 185° |
| 2026-05-07 20:50 | -45.00629 | -179.98580 | 32957 ft | 517 kts | 166° |
| 2026-05-07 20:51 | -45.07189 | -179.94266 | 32959 ft | 524 kts | 152° |
| 2026-05-07 20:51 | -45.13414 | -179.88842 | 32956 ft | 526 kts | 151° |
| 2026-05-07 20:52 | -45.19600 | -179.83420 | 32951 ft | 526 kts | 152° |
| 2026-05-07 20:52 | -45.25865 | -179.78021 | 32955 ft | 527 kts | 152° |
| 2026-05-07 20:53 | -45.32153 | -179.72645 | 32954 ft | 527 kts | 152° |
| 2026-05-07 20:53 | -45.38440 | -179.67269 | 32951 ft | 527 kts | 152° |
| 2026-05-07 20:54 | -45.44718 | -179.61878 | 32955 ft | 527 kts | 152° |
| 2026-05-07 20:54 | -45.51000 | -179.56465 | 32954 ft | 528 kts | 152° |
| 2026-05-07 20:55 | -45.57291 | -179.51027 | 32956 ft | 528 kts | 152° |
| 2026-05-07 20:55 | -45.63573 | -179.45582 | 32951 ft | 528 kts | 152° |
| 2026-05-07 20:56 | -45.69812 | -179.40164 | 32955 ft | 528 kts | 152° |
| 2026-05-07 20:56 | -45.76093 | -179.34694 | 32954 ft | 528 kts | 152° |
| 2026-05-07 20:57 | -45.82373 | -179.29210 | 32952 ft | 528 kts | 152° |
| 2026-05-07 20:57 | -45.88648 | -179.23714 | 32953 ft | 527 kts | 152° |
| 2026-05-07 20:58 | -45.94909 | -179.18217 | 32955 ft | 527 kts | 152° |
| 2026-05-07 20:58 | -46.01505 | -179.12411 | 32952 ft | 527 kts | 152° |
| 2026-05-07 20:59 | -46.07730 | -179.06916 | 32956 ft | 529 kts | 152° |
| 2026-05-07 20:59 | -46.14001 | -179.01363 | 32954 ft | 529 kts | 152° |
| 2026-05-07 21:00 | -46.20261 | -178.95807 | 32953 ft | 528 kts | 152° |
| 2026-05-07 21:00 | -46.26519 | -178.90237 | 32954 ft | 528 kts | 152° |
| 2026-05-07 21:01 | -46.32781 | -178.84647 | 32955 ft | 528 kts | 152° |
| 2026-05-07 21:01 | -46.39053 | -178.79039 | 32951 ft | 532 kts | 152° |
| 2026-05-07 21:02 | -46.45337 | -178.73401 | 32958 ft | 534 kts | 152° |
| 2026-05-07 21:02 | -46.51640 | -178.67727 | 32949 ft | 532 kts | 152° |
| 2026-05-07 21:03 | -46.57940 | -178.62040 | 32957 ft | 532 kts | 152° |
| 2026-05-07 21:03 | -46.64230 | -178.56350 | 32951 ft | 533 kts | 151° |
| 2026-05-07 21:04 | -46.70524 | -178.50641 | 32954 ft | 533 kts | 151° |
| 2026-05-07 21:04 | -46.76805 | -178.44927 | 32955 ft | 532 kts | 151° |
| 2026-05-07 21:05 | -46.83096 | -178.39187 | 32953 ft | 533 kts | 151° |
| 2026-05-07 21:05 | -46.89339 | -178.33473 | 32956 ft | 533 kts | 151° |
| 2026-05-07 21:06 | -46.95618 | -178.27712 | 32953 ft | 533 kts | 151° |
| 2026-05-07 21:06 | -47.01894 | -178.21937 | 32956 ft | 532 kts | 151° |
| 2026-05-07 21:07 | -47.08172 | -178.16146 | 32952 ft | 533 kts | 151° |
| 2026-05-07 21:07 | -47.14456 | -178.10334 | 32955 ft | 533 kts | 151° |
| 2026-05-07 21:08 | -47.20734 | -178.04510 | 32954 ft | 534 kts | 151° |
| 2026-05-07 21:08 | -47.27010 | -177.98670 | 32955 ft | 534 kts | 151° |
| 2026-05-07 21:09 | -47.33268 | -177.92831 | 32951 ft | 532 kts | 151° |
| 2026-05-07 21:09 | -47.39512 | -177.86985 | 32955 ft | 531 kts | 151° |
| 2026-05-07 21:10 | -47.45761 | -177.81119 | 32954 ft | 533 kts | 151° |
| 2026-05-07 21:10 | -47.51975 | -177.75271 | 32954 ft | 533 kts | 151° |
| 2026-05-07 21:11 | -47.58219 | -177.69378 | 32973 ft | 532 kts | 151° |
| 2026-05-07 21:11 | -47.67589 | -177.60504 | 32976 ft | 533 kts | 151° |
| 2026-05-07 21:12 | -47.73837 | -177.54563 | 32981 ft | 532 kts | 151° |
| 2026-05-07 21:12 | -47.80068 | -177.48621 | 32983 ft | 533 kts | 151° |
| 2026-05-07 21:13 | -47.86315 | -177.42650 | 32987 ft | 533 kts | 151° |
| 2026-05-07 21:13 | -47.92551 | -177.36669 | 32984 ft | 533 kts | 151° |
| 2026-05-07 21:14 | -47.98746 | -177.30710 | 32994 ft | 533 kts | 151° |
| 2026-05-07 21:14 | -48.04973 | -177.24704 | 33002 ft | 533 kts | 151° |
| 2026-05-07 21:15 | -48.11204 | -177.18677 | 33001 ft | 533 kts | 151° |
| 2026-05-07 21:15 | -48.17429 | -177.12636 | 33001 ft | 533 kts | 151° |
| 2026-05-07 21:16 | -48.23648 | -177.06583 | 32999 ft | 533 kts | 151° |
| 2026-05-07 21:16 | -48.29827 | -177.00554 | 32999 ft | 533 kts | 151° |
| 2026-05-07 21:17 | -48.36042 | -176.94470 | 32998 ft | 533 kts | 151° |
| 2026-05-07 21:17 | -48.42257 | -176.88369 | 32997 ft | 532 kts | 151° |
| 2026-05-07 21:18 | -48.48465 | -176.82260 | 33002 ft | 533 kts | 151° |
| 2026-05-07 21:18 | -48.53615 | -176.77172 | 33002 ft | 532 kts | 151° |
| 2026-05-07 21:19 | -48.59804 | -176.71046 | 32998 ft | 532 kts | 151° |
| 2026-05-07 21:19 | -48.65995 | -176.64901 | 33000 ft | 532 kts | 151° |
| 2026-05-07 21:20 | -48.72183 | -176.58736 | 33001 ft | 532 kts | 151° |
| 2026-05-07 21:20 | -48.78322 | -176.52604 | 33000 ft | 532 kts | 151° |
| 2026-05-07 21:21 | -48.84503 | -176.46414 | 33001 ft | 532 kts | 151° |
| 2026-05-07 21:21 | -48.90676 | -176.40210 | 32999 ft | 532 kts | 151° |
| 2026-05-07 21:22 | -48.96843 | -176.33991 | 32996 ft | 532 kts | 151° |
| 2026-05-07 21:22 | -49.03017 | -176.27751 | 33000 ft | 531 kts | 151° |
| 2026-05-07 21:23 | -49.09181 | -176.21499 | 33001 ft | 532 kts | 151° |
| 2026-05-07 21:23 | -49.15329 | -176.15247 | 32996 ft | 531 kts | 151° |
| 2026-05-07 21:24 | -49.21483 | -176.08967 | 33002 ft | 531 kts | 152° |
| 2026-05-07 21:24 | -49.27588 | -176.02721 | 32998 ft | 531 kts | 151° |
| 2026-05-07 21:25 | -49.33765 | -175.96382 | 33004 ft | 531 kts | 152° |
| 2026-05-07 21:25 | -49.39852 | -175.90114 | 32999 ft | 529 kts | 152° |
| 2026-05-07 21:26 | -49.45959 | -175.83806 | 33003 ft | 529 kts | 152° |
| 2026-05-07 21:26 | -49.52070 | -175.77478 | 32999 ft | 529 kts | 152° |
| 2026-05-07 21:27 | -49.58183 | -175.71127 | 33001 ft | 529 kts | 152° |
| 2026-05-07 21:27 | -49.64285 | -175.64768 | 33005 ft | 529 kts | 152° |
| 2026-05-07 21:28 | -49.70391 | -175.58385 | 33010 ft | 529 kts | 152° |
| 2026-05-07 21:28 | -49.76489 | -175.51990 | 33008 ft | 530 kts | 152° |
| 2026-05-07 21:29 | -49.82584 | -175.45577 | 33010 ft | 530 kts | 152° |
| 2026-05-07 21:29 | -49.88674 | -175.39151 | 33008 ft | 530 kts | 152° |
| 2026-05-07 21:30 | -49.94757 | -175.32713 | 33010 ft | 530 kts | 151° |
| 2026-05-07 21:30 | -50.00802 | -175.26294 | 33008 ft | 529 kts | 152° |
| 2026-05-07 21:31 | -50.06877 | -175.19821 | 33010 ft | 530 kts | 152° |
| 2026-05-07 21:31 | -50.12960 | -175.13323 | 33010 ft | 530 kts | 152° |
| 2026-05-07 21:32 | -50.19045 | -175.06806 | 32995 ft | 530 kts | 152° |
| 2026-05-07 21:32 | -50.25116 | -175.00277 | 32993 ft | 530 kts | 151° |
| 2026-05-07 21:33 | -50.31193 | -174.93723 | 32979 ft | 530 kts | 151° |
| 2026-05-07 21:33 | -50.37258 | -174.87159 | 32999 ft | 530 kts | 151° |
| 2026-05-07 21:34 | -50.43322 | -174.80579 | 32989 ft | 530 kts | 152° |
| 2026-05-07 21:34 | -50.49385 | -174.73979 | 32991 ft | 530 kts | 151° |
| 2026-05-07 21:35 | -50.55451 | -174.67349 | 32990 ft | 531 kts | 151° |
| 2026-05-07 21:35 | -50.61471 | -174.60752 | 32996 ft | 530 kts | 151° |
| 2026-05-07 21:36 | -50.67521 | -174.54102 | 32995 ft | 530 kts | 151° |
| 2026-05-07 21:36 | -50.73584 | -174.47417 | 32989 ft | 530 kts | 151° |
| 2026-05-07 21:37 | -50.79629 | -174.40727 | 32989 ft | 530 kts | 151° |
| 2026-05-07 21:37 | -50.85675 | -174.34016 | 32997 ft | 530 kts | 151° |
| 2026-05-07 21:38 | -50.91716 | -174.27291 | 32990 ft | 531 kts | 151° |
| 2026-05-07 21:38 | -50.97753 | -174.20548 | 32977 ft | 531 kts | 151° |
| 2026-05-07 21:39 | -51.03798 | -174.13776 | 32997 ft | 532 kts | 150° |
| 2026-05-07 21:39 | -51.09797 | -174.07026 | 32982 ft | 532 kts | 151° |
| 2026-05-07 21:40 | -51.15841 | -174.00206 | 32998 ft | 532 kts | 150° |
| 2026-05-07 21:40 | -51.21874 | -173.93377 | 32984 ft | 531 kts | 150° |
| 2026-05-07 21:41 | -51.27891 | -173.86544 | 32994 ft | 530 kts | 150° |
| 2026-05-07 21:41 | -51.33898 | -173.79704 | 32992 ft | 531 kts | 150° |
| 2026-05-07 21:42 | -51.39907 | -173.72833 | 32996 ft | 531 kts | 150° |
| 2026-05-07 21:42 | -51.45929 | -173.65929 | 32996 ft | 532 kts | 150° |
| 2026-05-07 21:43 | -51.51956 | -173.58996 | 32990 ft | 533 kts | 150° |
| 2026-05-07 21:43 | -51.57950 | -173.52076 | 32992 ft | 532 kts | 150° |
| 2026-05-07 21:44 | -51.63936 | -173.45140 | 32988 ft | 532 kts | 150° |
| 2026-05-07 21:44 | -51.69947 | -173.38152 | 32994 ft | 531 kts | 150° |
| 2026-05-07 21:45 | -51.75956 | -173.31147 | 32983 ft | 532 kts | 150° |
| 2026-05-07 21:45 | -51.81926 | -173.24165 | 32988 ft | 532 kts | 150° |
| 2026-05-07 21:46 | -51.87911 | -173.17138 | 32979 ft | 531 kts | 150° |
| 2026-05-07 21:46 | -51.93885 | -173.10103 | 32976 ft | 530 kts | 150° |
| 2026-05-07 21:47 | -51.99840 | -173.03062 | 32985 ft | 530 kts | 150° |
| 2026-05-07 21:47 | -52.05799 | -172.95997 | 32984 ft | 531 kts | 150° |
| 2026-05-07 21:48 | -52.11762 | -172.88903 | 32987 ft | 531 kts | 150° |
| 2026-05-07 21:48 | -52.17721 | -172.81789 | 32977 ft | 530 kts | 150° |
| 2026-05-07 21:49 | -52.23625 | -172.74718 | 32980 ft | 530 kts | 150° |
| 2026-05-07 21:49 | -52.29571 | -172.67572 | 32989 ft | 530 kts | 150° |
| 2026-05-07 21:50 | -52.35507 | -172.60409 | 32983 ft | 529 kts | 150° |
| 2026-05-07 21:50 | -52.41421 | -172.53252 | 32987 ft | 529 kts | 150° |
| 2026-05-07 21:51 | -52.47336 | -172.46073 | 32976 ft | 529 kts | 150° |
| 2026-05-07 21:51 | -52.53256 | -172.38859 | 32979 ft | 529 kts | 150° |
| 2026-05-07 21:52 | -52.59122 | -172.31686 | 32977 ft | 529 kts | 149° |
| 2026-05-07 21:52 | -52.65025 | -172.24446 | 32986 ft | 529 kts | 149° |
| 2026-05-07 21:53 | -52.70925 | -172.17182 | 32977 ft | 529 kts | 149° |
| 2026-05-07 21:53 | -52.76843 | -172.09879 | 32987 ft | 531 kts | 149° |
| 2026-05-07 21:54 | -52.82749 | -172.02552 | 32987 ft | 531 kts | 149° |
| 2026-05-07 21:54 | -52.88652 | -171.95204 | 32981 ft | 530 kts | 149° |
| 2026-05-07 21:55 | -52.94544 | -171.87849 | 32979 ft | 530 kts | 149° |
| 2026-05-07 21:55 | -53.00439 | -171.80464 | 32988 ft | 531 kts | 149° |
| 2026-05-07 21:56 | -53.06299 | -171.73102 | 33012 ft | 531 kts | 149° |
| 2026-05-07 21:56 | -53.12193 | -171.65666 | 33017 ft | 531 kts | 149° |
| 2026-05-07 21:57 | -53.18080 | -171.58213 | 33018 ft | 532 kts | 149° |
| 2026-05-07 21:57 | -53.23973 | -171.50726 | 33016 ft | 532 kts | 149° |
| 2026-05-07 21:58 | -53.29861 | -171.43218 | 33018 ft | 532 kts | 148° |
| 2026-05-07 21:58 | -53.35747 | -171.35685 | 33017 ft | 533 kts | 148° |
| 2026-05-07 21:59 | -53.41608 | -171.28160 | 33018 ft | 533 kts | 148° |
| 2026-05-07 21:59 | -53.47499 | -171.20566 | 33017 ft | 534 kts | 148° |
| 2026-05-07 22:00 | -53.53386 | -171.12955 | 33020 ft | 534 kts | 148° |
| 2026-05-07 22:00 | -53.59268 | -171.05321 | 33020 ft | 534 kts | 148° |
| 2026-05-07 22:01 | -53.65152 | -170.97659 | 33017 ft | 534 kts | 148° |
| 2026-05-07 22:01 | -53.71014 | -170.89989 | 33019 ft | 534 kts | 148° |
| 2026-05-07 22:02 | -53.76885 | -170.82289 | 33017 ft | 534 kts | 148° |
| 2026-05-07 22:02 | -53.82760 | -170.74552 | 33021 ft | 535 kts | 148° |
| 2026-05-07 22:03 | -53.88634 | -170.66787 | 33018 ft | 535 kts | 148° |
| 2026-05-07 22:03 | -53.94463 | -170.59056 | 33019 ft | 535 kts | 148° |
| 2026-05-07 22:04 | -54.00320 | -170.51256 | 33031 ft | 535 kts | 148° |
| 2026-05-07 22:04 | -54.06178 | -170.43427 | 33038 ft | 536 kts | 147° |
| 2026-05-07 22:05 | -54.12050 | -170.35544 | 33033 ft | 536 kts | 147° |
| 2026-05-07 22:05 | -54.16921 | -170.28992 | 33037 ft | 536 kts | 147° |
| 2026-05-07 22:06 | -54.22770 | -170.21091 | 33036 ft | 536 kts | 147° |
| 2026-05-07 22:06 | -54.28624 | -170.13159 | 33034 ft | 536 kts | 147° |
| 2026-05-07 22:07 | -54.34469 | -170.05208 | 33035 ft | 536 kts | 147° |
| 2026-05-07 22:07 | -54.40306 | -169.97232 | 33040 ft | 536 kts | 147° |
| 2026-05-07 22:08 | -54.46102 | -169.89290 | 33037 ft | 537 kts | 147° |
| 2026-05-07 22:08 | -54.51928 | -169.81270 | 33040 ft | 536 kts | 147° |
| 2026-05-07 22:09 | -54.57754 | -169.73227 | 33036 ft | 536 kts | 147° |
| 2026-05-07 22:09 | -54.63581 | -169.65150 | 33036 ft | 537 kts | 147° |
| 2026-05-07 22:10 | -54.69400 | -169.57053 | 33038 ft | 537 kts | 147° |
| 2026-05-07 22:10 | -54.75214 | -169.48929 | 33035 ft | 537 kts | 147° |
| 2026-05-07 22:11 | -54.80999 | -169.40813 | 33026 ft | 538 kts | 147° |
| 2026-05-07 22:11 | -54.86817 | -169.32631 | 33027 ft | 539 kts | 147° |
| 2026-05-07 22:12 | -54.92624 | -169.24425 | 33028 ft | 538 kts | 146° |
| 2026-05-07 22:12 | -54.98439 | -169.16176 | 33138 ft | 541 kts | 146° |
| 2026-05-07 22:13 | -55.01361 | -169.12020 | 33458 ft | 540 kts | 146° |
| 2026-05-07 22:13 | -55.04258 | -169.07885 | 33911 ft | 535 kts | 146° |
| 2026-05-07 22:13 | -55.07126 | -169.03783 | 34286 ft | 533 kts | 147° |
| 2026-05-07 22:13 | -55.09990 | -168.99681 | 34606 ft | 532 kts | 146° |
| 2026-05-07 22:14 | -55.12852 | -168.95578 | 34824 ft | 533 kts | 147° |
| 2026-05-07 22:14 | -55.15727 | -168.91458 | 34955 ft | 533 kts | 147° |
| 2026-05-07 22:14 | -55.21422 | -168.83262 | 35022 ft | 533 kts | 147° |
| 2026-05-07 22:15 | -55.27146 | -168.74986 | 35031 ft | 533 kts | 147° |
| 2026-05-07 22:15 | -55.32868 | -168.66681 | 35030 ft | 533 kts | 146° |
| 2026-05-07 22:16 | -55.38578 | -168.58358 | 35030 ft | 533 kts | 146° |
| 2026-05-07 22:16 | -55.44281 | -168.50011 | 35026 ft | 533 kts | 146° |
| 2026-05-07 22:17 | -55.49950 | -168.41687 | 35027 ft | 533 kts | 146° |
| 2026-05-07 22:17 | -55.55643 | -168.33294 | 35027 ft | 533 kts | 146° |
| 2026-05-07 22:18 | -55.64173 | -168.20657 | 35026 ft | 533 kts | 146° |
| 2026-05-07 22:19 | -55.69862 | -168.12188 | 35029 ft | 534 kts | 146° |
| 2026-05-07 22:19 | -55.75554 | -168.03684 | 35029 ft | 535 kts | 146° |
| 2026-05-07 22:20 | -55.81242 | -167.95146 | 35027 ft | 535 kts | 146° |
| 2026-05-07 22:20 | -55.86883 | -167.86645 | 35026 ft | 535 kts | 146° |
| 2026-05-07 22:21 | -55.92550 | -167.78073 | 35031 ft | 535 kts | 146° |
| 2026-05-07 22:21 | -55.98216 | -167.69472 | 35054 ft | 535 kts | 146° |
| 2026-05-07 22:22 | -56.03877 | -167.60841 | 35055 ft | 535 kts | 146° |
| 2026-05-07 22:22 | -56.09536 | -167.52181 | 35057 ft | 535 kts | 146° |
| 2026-05-07 22:23 | -56.15194 | -167.43484 | 35057 ft | 535 kts | 146° |
| 2026-05-07 22:23 | -56.20837 | -167.34775 | 35055 ft | 535 kts | 146° |
| 2026-05-07 22:24 | -56.26482 | -167.26030 | 35056 ft | 535 kts | 146° |
| 2026-05-07 22:24 | -56.32112 | -167.17271 | 35055 ft | 535 kts | 146° |
| 2026-05-07 22:25 | -56.37719 | -167.08515 | 35056 ft | 536 kts | 146° |
| 2026-05-07 22:25 | -56.43351 | -166.99681 | 35056 ft | 536 kts | 146° |
| 2026-05-07 22:26 | -56.48969 | -166.90839 | 35056 ft | 536 kts | 145° |
| 2026-05-07 22:26 | -56.54588 | -166.81955 | 35055 ft | 536 kts | 145° |
| 2026-05-07 22:27 | -56.60201 | -166.73043 | 35061 ft | 536 kts | 145° |
| 2026-05-07 22:27 | -56.65816 | -166.64096 | 35067 ft | 536 kts | 145° |
| 2026-05-07 22:28 | -56.71407 | -166.55141 | 35064 ft | 536 kts | 145° |
| 2026-05-07 22:28 | -56.76998 | -166.46153 | 35063 ft | 535 kts | 145° |
| 2026-05-07 22:29 | -56.82588 | -166.37134 | 35067 ft | 536 kts | 145° |
| 2026-05-07 22:29 | -56.88142 | -166.28136 | 35065 ft | 537 kts | 145° |
| 2026-05-07 22:30 | -56.93733 | -166.19035 | 35065 ft | 537 kts | 145° |
| 2026-05-07 22:30 | -56.99311 | -166.09919 | 35058 ft | 538 kts | 145° |
| 2026-05-07 22:31 | -57.04902 | -166.00747 | 35065 ft | 539 kts | 145° |
| 2026-05-07 22:31 | -57.10495 | -165.91527 | 35068 ft | 539 kts | 145° |
| 2026-05-07 22:32 | -57.16068 | -165.82299 | 35065 ft | 539 kts | 145° |
| 2026-05-07 22:32 | -57.21640 | -165.73041 | 35068 ft | 539 kts | 145° |
| 2026-05-07 22:33 | -57.27171 | -165.63810 | 35065 ft | 540 kts | 145° |
| 2026-05-07 22:33 | -57.32742 | -165.54472 | 35064 ft | 540 kts | 145° |
| 2026-05-07 22:34 | -57.38299 | -165.45120 | 35061 ft | 540 kts | 145° |
| 2026-05-07 22:34 | -57.43861 | -165.35715 | 35065 ft | 540 kts | 145° |
| 2026-05-07 22:35 | -57.49403 | -165.26307 | 35063 ft | 540 kts | 145° |
| 2026-05-07 22:35 | -57.54936 | -165.16867 | 35066 ft | 539 kts | 144° |
| 2026-05-07 22:36 | -57.60464 | -165.07400 | 35062 ft | 540 kts | 144° |
| 2026-05-07 22:36 | -57.65994 | -164.97890 | 35069 ft | 539 kts | 144° |
| 2026-05-07 22:37 | -57.71498 | -164.88378 | 35063 ft | 539 kts | 144° |
| 2026-05-07 22:37 | -57.76968 | -164.78892 | 35063 ft | 539 kts | 144° |
| 2026-05-07 22:38 | -57.82470 | -164.69308 | 35071 ft | 539 kts | 144° |
| 2026-05-07 22:38 | -57.87957 | -164.59705 | 35064 ft | 539 kts | 144° |
| 2026-05-07 22:39 | -57.93440 | -164.50068 | 35064 ft | 539 kts | 144° |
| 2026-05-07 22:39 | -57.98916 | -164.40397 | 35062 ft | 539 kts | 144° |
| 2026-05-07 22:40 | -58.04381 | -164.30705 | 35064 ft | 540 kts | 145° |
| 2026-05-07 22:40 | -58.09840 | -164.20983 | 35069 ft | 540 kts | 144° |
| 2026-05-07 22:41 | -58.15297 | -164.11213 | 35063 ft | 539 kts | 144° |
| 2026-05-07 22:41 | -58.20740 | -164.01434 | 35059 ft | 539 kts | 144° |
| 2026-05-07 22:42 | -58.26150 | -163.91676 | 35068 ft | 540 kts | 144° |
| 2026-05-07 22:42 | -58.31583 | -163.81829 | 35059 ft | 540 kts | 144° |
| 2026-05-07 22:43 | -58.37024 | -163.71918 | 35069 ft | 541 kts | 144° |
| 2026-05-07 22:43 | -58.42457 | -163.61983 | 35065 ft | 541 kts | 144° |
| 2026-05-07 22:44 | -58.47878 | -163.52016 | 35064 ft | 541 kts | 144° |
| 2026-05-07 22:44 | -58.53299 | -163.42008 | 35068 ft | 541 kts | 144° |
| 2026-05-07 22:45 | -58.58707 | -163.31984 | 35076 ft | 541 kts | 144° |
| 2026-05-07 22:45 | -58.64075 | -163.21978 | 35075 ft | 541 kts | 144° |
| 2026-05-07 22:46 | -58.69462 | -163.11897 | 35072 ft | 541 kts | 144° |
| 2026-05-07 22:46 | -58.74853 | -163.01766 | 35079 ft | 542 kts | 144° |
| 2026-05-07 22:47 | -58.80248 | -162.91582 | 35078 ft | 541 kts | 144° |
| 2026-05-07 22:47 | -58.85615 | -162.81396 | 35071 ft | 541 kts | 144° |
| 2026-05-07 22:48 | -58.90971 | -162.71188 | 35069 ft | 541 kts | 144° |
| 2026-05-07 22:48 | -58.96321 | -162.60950 | 35082 ft | 541 kts | 144° |
| 2026-05-07 22:49 | -59.01657 | -162.50684 | 35068 ft | 540 kts | 144° |
| 2026-05-07 22:49 | -59.06990 | -162.40379 | 35074 ft | 541 kts | 144° |
| 2026-05-07 22:50 | -59.12319 | -162.30034 | 35068 ft | 542 kts | 144° |
| 2026-05-07 22:50 | -59.17610 | -162.19717 | 35069 ft | 542 kts | 143° |
| 2026-05-07 22:51 | -59.22926 | -162.09300 | 35070 ft | 542 kts | 143° |
| 2026-05-07 22:51 | -59.28236 | -161.98840 | 35077 ft | 541 kts | 143° |
| 2026-05-07 22:52 | -59.33526 | -161.88373 | 35077 ft | 540 kts | 144° |
| 2026-05-07 22:52 | -59.38805 | -161.77886 | 35075 ft | 540 kts | 144° |
| 2026-05-07 22:53 | -59.44076 | -161.67362 | 35074 ft | 540 kts | 143° |
| 2026-05-07 22:53 | -59.49315 | -161.56856 | 35071 ft | 541 kts | 143° |
| 2026-05-07 22:54 | -59.54587 | -161.46230 | 35070 ft | 541 kts | 143° |
| 2026-05-07 22:54 | -59.59839 | -161.35587 | 35071 ft | 540 kts | 143° |
| 2026-05-07 22:55 | -59.64184 | -161.26744 | 35076 ft | 540 kts | 143° |
| 2026-05-07 22:55 | -59.70289 | -161.14270 | 35071 ft | 540 kts | 143° |
| 2026-05-07 22:56 | -59.74627 | -161.05368 | 35082 ft | 540 kts | 143° |
| 2026-05-07 22:56 | -59.79833 | -160.94628 | 35076 ft | 539 kts | 143° |
| 2026-05-07 22:57 | -59.85021 | -160.83874 | 35070 ft | 538 kts | 143° |
| 2026-05-07 22:57 | -59.90198 | -160.73093 | 35072 ft | 538 kts | 143° |
| 2026-05-07 22:58 | -59.95363 | -160.62281 | 35081 ft | 538 kts | 143° |
| 2026-05-07 22:58 | -60.00512 | -160.51450 | 35072 ft | 537 kts | 143° |
| 2026-05-07 22:59 | -60.05623 | -160.40658 | 35078 ft | 538 kts | 143° |
| 2026-05-07 22:59 | -60.10564 | -160.29340 | 35080 ft | 547 kts | 135° |
| 2026-05-07 23:00 | -60.14955 | -160.16782 | 35080 ft | 550 kts | 133° |
| 2026-05-07 23:00 | -60.19252 | -160.04063 | 35075 ft | 550 kts | 133° |
| 2026-05-07 23:01 | -60.23569 | -159.91355 | 35074 ft | 550 kts | 133° |
| 2026-05-07 23:01 | -60.35047 | -159.57720 | 35082 ft | 549 kts | 133° |
| 2026-05-07 23:02 | -60.52139 | -159.06684 | 35104 ft | 545 kts | 133° |
| 2026-05-07 23:02 | -60.68851 | -158.55684 | 35102 ft | 545 kts | 132° |
| 2026-05-07 23:03 | -60.85459 | -158.03858 | 35099 ft | 544 kts | 132° |
| 2026-05-07 23:03 | -61.01842 | -157.51567 | 35111 ft | 542 kts | 131° |
| 2026-05-07 23:04 | -61.17955 | -156.98955 | 35079 ft | 540 kts | 131° |
| 2026-05-07 23:04 | -61.33838 | -156.45890 | 35097 ft | 539 kts | 130° |
| 2026-05-07 23:05 | -61.49310 | -155.92986 | 35090 ft | 535 kts | 130° |
| 2026-05-07 23:05 | -61.64739 | -155.38979 | 35101 ft | 536 kts | 130° |
| 2026-05-07 23:06 | -61.79738 | -154.85209 | 35103 ft | 535 kts | 129° |
| 2026-05-07 23:06 | -61.94609 | -154.30598 | 35080 ft | 533 kts | 128° |
| 2026-05-07 23:07 | -62.09177 | -153.75793 | 35099 ft | 532 kts | 128° |
| 2026-05-07 23:07 | -62.23563 | -153.20320 | 35105 ft | 534 kts | 127° |
| 2026-05-07 23:08 | -62.37713 | -152.64348 | 35098 ft | 531 kts | 127° |
| 2026-05-07 23:08 | -62.51634 | -152.07880 | 35105 ft | 534 kts | 126° |
| 2026-05-07 23:09 | -62.65342 | -151.50800 | 35100 ft | 532 kts | 126° |
| 2026-05-07 23:09 | -62.78771 | -150.93395 | 35111 ft | 531 kts | 125° |
| 2026-05-07 23:10 | -62.91944 | -150.35557 | 35079 ft | 529 kts | 124° |
| 2026-05-07 23:10 | -63.04764 | -149.77731 | 35110 ft | 530 kts | 123° |
| 2026-05-07 23:11 | -63.17471 | -149.18793 | 35081 ft | 527 kts | 122° |
| 2026-05-07 23:11 | -63.29749 | -148.60246 | 35109 ft | 526 kts | 122° |
| 2026-05-07 23:12 | -63.41843 | -148.00901 | 35107 ft | 525 kts | 121° |
| 2026-05-07 23:12 | -63.53641 | -147.41308 | 35099 ft | 524 kts | 120° |
| 2026-05-07 23:13 | -63.65212 | -146.81112 | 35107 ft | 524 kts | 119° |
| 2026-05-07 23:13 | -63.76510 | -146.20520 | 35097 ft | 521 kts | 118° |
| 2026-05-07 23:14 | -63.87466 | -145.59948 | 35107 ft | 520 kts | 117° |
| 2026-05-07 23:14 | -63.98192 | -144.98747 | 35100 ft | 521 kts | 116° |
| 2026-05-07 23:15 | -64.08646 | -144.37153 | 35114 ft | 518 kts | 115° |
| 2026-05-07 23:15 | -64.18751 | -143.75652 | 35121 ft | 520 kts | 114° |
| 2026-05-07 23:16 | -64.28663 | -143.13258 | 35111 ft | 518 kts | 113° |
| 2026-05-07 23:16 | -64.38262 | -142.50734 | 35118 ft | 515 kts | 112° |
| 2026-05-07 23:17 | -64.47562 | -141.87985 | 35117 ft | 516 kts | 112° |
| 2026-05-07 23:17 | -64.56606 | -141.24730 | 35109 ft | 514 kts | 111° |
| 2026-05-07 23:18 | -64.65342 | -140.61308 | 35114 ft | 515 kts | 110° |
| 2026-05-07 23:18 | -64.73817 | -139.97391 | 35123 ft | 515 kts | 109° |
| 2026-05-07 23:19 | -64.82017 | -139.33069 | 35126 ft | 513 kts | 109° |
| 2026-05-07 23:19 | -64.89853 | -138.69066 | 35119 ft | 512 kts | 108° |
| 2026-05-07 23:20 | -64.97453 | -138.04340 | 35107 ft | 512 kts | 107° |
| 2026-05-07 23:20 | -65.04782 | -137.39147 | 35113 ft | 511 kts | 107° |
| 2026-05-07 23:21 | -65.11795 | -136.73901 | 35135 ft | 510 kts | 106° |
| 2026-05-07 23:21 | -65.18522 | -136.08337 | 35127 ft | 509 kts | 105° |
| 2026-05-07 23:22 | -65.24909 | -135.42980 | 35135 ft | 509 kts | 104° |
| 2026-05-07 23:22 | -65.31051 | -134.76888 | 35127 ft | 508 kts | 104° |
| 2026-05-07 23:23 | -65.36884 | -134.10710 | 35127 ft | 507 kts | 103° |
| 2026-05-07 23:23 | -65.42426 | -133.44229 | 35129 ft | 508 kts | 103° |
| 2026-05-07 23:24 | -65.47679 | -132.77438 | 35127 ft | 507 kts | 102° |
| 2026-05-07 23:24 | -65.52624 | -132.10549 | 35133 ft | 508 kts | 102° |
| 2026-05-07 23:25 | -65.57253 | -131.43727 | 35128 ft | 507 kts | 101° |
| 2026-05-07 23:25 | -65.61605 | -130.76410 | 35127 ft | 506 kts | 101° |
| 2026-05-07 23:26 | -65.65849 | -130.09074 | 35132 ft | 504 kts | 106° |
| 2026-05-07 23:26 | -65.72756 | -129.43045 | 35105 ft | 503 kts | 106° |
| 2026-05-07 23:27 | -65.82453 | -128.43200 | 35130 ft | 505 kts | 105° |
| 2026-05-07 23:27 | -65.88538 | -127.76451 | 35128 ft | 503 kts | 104° |
| 2026-05-07 23:28 | -65.94337 | -127.09329 | 35156 ft | 504 kts | 103° |
| 2026-05-07 23:28 | -65.99848 | -126.41837 | 35138 ft | 503 kts | 102° |
| 2026-05-07 23:29 | -66.05053 | -125.74186 | 35148 ft | 502 kts | 101° |
| 2026-05-07 23:29 | -66.09911 | -125.06976 | 35149 ft | 502 kts | 100° |
| 2026-05-07 23:30 | -66.14503 | -124.39098 | 35150 ft | 501 kts | 99° |
| 2026-05-07 23:30 | -66.18799 | -123.70924 | 35152 ft | 502 kts | 99° |
| 2026-05-07 23:31 | -66.22795 | -123.02552 | 35178 ft | 500 kts | 98° |
| 2026-05-07 23:31 | -66.26479 | -122.34138 | 35172 ft | 500 kts | 97° |
| 2026-05-07 23:32 | -66.29863 | -121.65506 | 35185 ft | 501 kts | 96° |
| 2026-05-07 23:32 | -66.32922 | -120.97184 | 35170 ft | 497 kts | 95° |
| 2026-05-07 23:33 | -66.35678 | -120.28797 | 35180 ft | 496 kts | 94° |
| 2026-05-07 23:33 | -66.38139 | -119.60099 | 35179 ft | 498 kts | 94° |
| 2026-05-07 23:34 | -66.40287 | -118.91623 | 35168 ft | 492 kts | 92° |
| 2026-05-07 23:34 | -66.42125 | -118.23403 | 35137 ft | 492 kts | 92° |
| 2026-05-07 23:35 | -66.43658 | -117.55431 | 35121 ft | 491 kts | 91° |
| 2026-05-07 23:35 | -66.44895 | -116.87411 | 35117 ft | 487 kts | 90° |
| 2026-05-07 23:36 | -66.45832 | -116.19620 | 35126 ft | 488 kts | 89° |
| 2026-05-07 23:36 | -66.46478 | -115.51534 | 35125 ft | 488 kts | 89° |
| 2026-05-07 23:37 | -66.46825 | -114.83935 | 35114 ft | 483 kts | 88° |
| 2026-05-07 23:37 | -66.46879 | -114.16684 | 35133 ft | 484 kts | 87° |
| 2026-05-07 23:38 | -66.46647 | -113.49259 | 35115 ft | 484 kts | 86° |
| 2026-05-07 23:38 | -66.46127 | -112.82279 | 35112 ft | 479 kts | 85° |
| 2026-05-07 23:39 | -66.45324 | -112.15732 | 35121 ft | 483 kts | 85° |
| 2026-05-07 23:39 | -66.44228 | -111.48435 | 35124 ft | 483 kts | 84° |
| 2026-05-07 23:40 | -66.42856 | -110.81884 | 35127 ft | 478 kts | 84° |
| 2026-05-07 23:40 | -66.41195 | -110.15326 | 35138 ft | 482 kts | 83° |
| 2026-05-07 23:41 | -66.39238 | -109.48299 | 35130 ft | 483 kts | 83° |
| 2026-05-07 23:41 | -66.37029 | -108.82441 | 35151 ft | 477 kts | 82° |
| 2026-05-07 23:42 | -66.34526 | -108.16319 | 35197 ft | 482 kts | 82° |
| 2026-05-07 23:42 | -66.32211 | -107.60881 | 35189 ft | 485 kts | 81° |
| 2026-05-07 23:43 | -66.29166 | -106.94439 | 35173 ft | 480 kts | 80° |
| 2026-05-07 23:43 | -66.25879 | -106.28901 | 35195 ft | 484 kts | 80° |
| 2026-05-07 23:44 | -66.22258 | -105.62532 | 35182 ft | 486 kts | 79° |
| 2026-05-07 23:44 | -66.18370 | -104.96603 | 35179 ft | 481 kts | 78° |
| 2026-05-07 23:45 | -66.14201 | -104.30886 | 35191 ft | 485 kts | 77° |
| 2026-05-07 23:45 | -66.09743 | -103.65194 | 35186 ft | 488 kts | 77° |
| 2026-05-07 23:46 | -66.05007 | -102.99680 | 35179 ft | 483 kts | 76° |
| 2026-05-07 23:46 | -65.99615 | -102.34948 | 35182 ft | 484 kts | 74° |
| 2026-05-07 23:47 | -65.96790 | -102.02310 | 35450 ft | 492 kts | 74° |
| 2026-05-07 23:47 | -65.93891 | -101.69648 | 36620 ft | 489 kts | 73° |
| 2026-05-07 23:47 | -65.90941 | -101.37305 | 37257 ft | 491 kts | 73° |
| 2026-05-07 23:47 | -65.87927 | -101.05065 | 37222 ft | 488 kts | 72° |
| 2026-05-07 23:48 | -65.81726 | -100.41127 | 37202 ft | 483 kts | 72° |
| 2026-05-07 23:48 | -65.75284 | -99.77723 | 37181 ft | 480 kts | 71° |
| 2026-05-07 23:49 | -65.68594 | -99.14779 | 37178 ft | 482 kts | 70° |
| 2026-05-07 23:49 | -65.61900 | -98.54391 | 37189 ft | 481 kts | 69° |
| 2026-05-07 23:50 | -65.54763 | -97.92594 | 37196 ft | 478 kts | 69° |
| 2026-05-07 23:50 | -65.47354 | -97.30974 | 37192 ft | 479 kts | 68° |
| 2026-05-07 23:51 | -65.39673 | -96.69489 | 37174 ft | 479 kts | 67° |
| 2026-05-07 23:51 | -65.31780 | -96.08663 | 37178 ft | 477 kts | 66° |
| 2026-05-07 23:52 | -65.23671 | -95.48411 | 37176 ft | 476 kts | 65° |
| 2026-05-07 23:52 | -65.15293 | -94.88321 | 37169 ft | 477 kts | 64° |
| 2026-05-07 23:53 | -65.06766 | -94.29220 | 37166 ft | 476 kts | 64° |
| 2026-05-07 23:53 | -64.97956 | -93.70167 | 37171 ft | 476 kts | 63° |
| 2026-05-07 23:54 | -64.88892 | -93.11371 | 37175 ft | 475 kts | 62° |
| 2026-05-07 23:54 | -64.79636 | -92.53203 | 37171 ft | 475 kts | 62° |
| 2026-05-07 23:55 | -64.70190 | -91.95664 | 37174 ft | 476 kts | 61° |
| 2026-05-07 23:55 | -64.60467 | -91.38192 | 37180 ft | 475 kts | 60° |
| 2026-05-07 23:56 | -64.50559 | -90.81351 | 37173 ft | 473 kts | 60° |
| 2026-05-07 23:56 | -64.40449 | -90.25014 | 37166 ft | 474 kts | 59° |
| 2026-05-07 23:57 | -64.30092 | -89.68915 | 37174 ft | 474 kts | 58° |
| 2026-05-07 23:57 | -64.19573 | -89.13493 | 37172 ft | 470 kts | 58° |
| 2026-05-07 23:58 | -64.09022 | -88.59408 | 37172 ft | 466 kts | 57° |
| 2026-05-07 23:58 | -63.98239 | -88.05573 | 37183 ft | 467 kts | 57° |
| 2026-05-07 23:59 | -63.87238 | -87.52045 | 37173 ft | 466 kts | 56° |
| 2026-05-07 23:59 | -63.76071 | -86.99088 | 37177 ft | 467 kts | 56° |
| 2026-05-08 00:00 | -63.64702 | -86.46495 | 37179 ft | 463 kts | 56° |
| 2026-05-08 00:00 | -63.53268 | -85.94899 | 37175 ft | 459 kts | 55° |
| 2026-05-08 00:01 | -63.41785 | -85.44310 | 37180 ft | 459 kts | 54° |
| 2026-05-08 00:01 | -63.29906 | -84.93224 | 37172 ft | 475 kts | 54° |
| 2026-05-08 00:02 | -63.23664 | -84.66838 | 37195 ft | 488 kts | 54° |
| 2026-05-08 00:02 | -63.17297 | -84.40203 | 37158 ft | 486 kts | 54° |
| 2026-05-08 00:02 | -63.04579 | -83.88049 | 37195 ft | 484 kts | 53° |
| 2026-05-08 00:03 | -62.91681 | -83.36379 | 37166 ft | 480 kts | 53° |
| 2026-05-08 00:03 | -62.78640 | -82.85339 | 37171 ft | 478 kts | 53° |
| 2026-05-08 00:04 | -62.65559 | -82.35302 | 37176 ft | 477 kts | 52° |
| 2026-05-08 00:04 | -62.52256 | -81.85531 | 37183 ft | 477 kts | 52° |
| 2026-05-08 00:05 | -62.38833 | -81.36407 | 37182 ft | 474 kts | 52° |
| 2026-05-08 00:05 | -62.25339 | -80.88075 | 37175 ft | 468 kts | 51° |
| 2026-05-08 00:06 | -62.11843 | -80.40752 | 37176 ft | 466 kts | 51° |
| 2026-05-08 00:06 | -61.97687 | -79.94813 | 37141 ft | 453 kts | 38° |
| 2026-05-08 00:07 | -61.79718 | -79.57253 | 37183 ft | 453 kts | 38° |
| 2026-05-08 00:07 | -61.61693 | -79.19896 | 37175 ft | 454 kts | 38° |
| 2026-05-08 00:08 | -61.43653 | -78.83158 | 37170 ft | 454 kts | 38° |
| 2026-05-08 00:08 | -61.25432 | -78.46675 | 37201 ft | 455 kts | 38° |
| 2026-05-08 00:09 | -61.07017 | -78.10426 | 37194 ft | 456 kts | 38° |
| 2026-05-08 00:09 | -60.88631 | -77.74839 | 37183 ft | 458 kts | 38° |
| 2026-05-08 00:10 | -60.69903 | -77.39186 | 37194 ft | 460 kts | 38° |
| 2026-05-08 00:10 | -60.50969 | -77.03740 | 37199 ft | 462 kts | 38° |
| 2026-05-08 00:11 | -60.32029 | -76.68866 | 37224 ft | 465 kts | 38° |
| 2026-05-08 00:11 | -60.12664 | -76.33794 | 37230 ft | 469 kts | 39° |
| 2026-05-08 00:12 | -59.93099 | -75.98942 | 37226 ft | 471 kts | 39° |
| 2026-05-08 00:12 | -59.73553 | -75.64689 | 37230 ft | 472 kts | 38° |
| 2026-05-08 00:13 | -59.53727 | -75.30509 | 37232 ft | 474 kts | 39° |
| 2026-05-08 00:13 | -59.33681 | -74.96505 | 37229 ft | 476 kts | 39° |
| 2026-05-08 00:14 | -59.13512 | -74.62843 | 37234 ft | 478 kts | 39° |
| 2026-05-08 00:14 | -58.93139 | -74.29385 | 37226 ft | 479 kts | 39° |
| 2026-05-08 00:15 | -58.72651 | -73.96272 | 37229 ft | 480 kts | 39° |
| 2026-05-08 00:15 | -58.51970 | -73.63375 | 37233 ft | 482 kts | 40° |
| 2026-05-08 00:16 | -58.31334 | -73.31065 | 37225 ft | 484 kts | 40° |
| 2026-05-08 00:16 | -58.10412 | -72.98814 | 37241 ft | 485 kts | 40° |
| 2026-05-08 00:17 | -57.89316 | -72.66800 | 37224 ft | 488 kts | 40° |
| 2026-05-08 00:17 | -57.67971 | -72.34911 | 37224 ft | 491 kts | 41° |
| 2026-05-08 00:18 | -57.46510 | -72.03339 | 37220 ft | 492 kts | 40° |
| 2026-05-08 00:18 | -57.24933 | -71.72084 | 37225 ft | 493 kts | 41° |
| 2026-05-08 00:19 | -57.03227 | -71.41118 | 37274 ft | 494 kts | 41° |
| 2026-05-08 00:19 | -56.81377 | -71.10417 | 37265 ft | 495 kts | 41° |
| 2026-05-08 00:20 | -56.59566 | -70.80226 | 37271 ft | 496 kts | 41° |
| 2026-05-08 00:20 | -56.37516 | -70.50162 | 37279 ft | 496 kts | 41° |
| 2026-05-08 00:21 | -56.15290 | -70.20298 | 37285 ft | 498 kts | 40° |
| 2026-05-08 00:21 | -55.93430 | -69.90063 | 37176 ft | 496 kts | 45° |
| 2026-05-08 00:22 | -55.82916 | -69.73915 | 34385 ft | 496 kts | 45° |
| 2026-05-08 00:22 | -55.72387 | -69.57985 | 30981 ft | 499 kts | 46° |
| 2026-05-08 00:22 | -55.61965 | -69.42354 | 28298 ft | 480 kts | 46° |
| 2026-05-08 00:22 | -55.51986 | -69.27472 | 25936 ft | 458 kts | 46° |
| 2026-05-08 00:23 | -55.42568 | -69.13515 | 23765 ft | 438 kts | 45° |
| 2026-05-08 00:23 | -55.33398 | -69.00008 | 21574 ft | 421 kts | 43° |
| 2026-05-08 00:23 | -55.24535 | -68.87036 | 19368 ft | 408 kts | 43° |
| 2026-05-08 00:23 | -55.15935 | -68.74526 | 17266 ft | 396 kts | 41° |
| 2026-05-08 00:24 | -55.11789 | -68.68520 | 16240 ft | 390 kts | 41° |
| 2026-05-08 00:24 | -55.09698 | -68.65498 | 15706 ft | 388 kts | 41° |
| 2026-05-08 00:24 | -55.07940 | -68.62960 | 15294 ft | 386 kts | 40° |
| 2026-05-08 00:24 | -55.05876 | -68.59983 | 14797 ft | 383 kts | 40° |
| 2026-05-08 00:25 | -55.03825 | -68.57031 | 14295 ft | 381 kts | 40° |
| 2026-05-08 00:25 | -55.01787 | -68.54101 | 13792 ft | 378 kts | 40° |
| 2026-05-08 00:25 | -54.99762 | -68.51194 | 13308 ft | 375 kts | 40° |
| 2026-05-08 00:25 | -54.97753 | -68.48312 | 12808 ft | 373 kts | 40° |
| 2026-05-08 00:26 | -54.95782 | -68.45488 | 12445 ft | 367 kts | 40° |
| 2026-05-08 00:26 | -54.93845 | -68.42717 | 12364 ft | 353 kts | 40° |
| 2026-05-08 00:26 | -54.91982 | -68.40055 | 12277 ft | 340 kts | 40° |
| 2026-05-08 00:26 | -54.90187 | -68.37494 | 12173 ft | 324 kts | 40° |
| 2026-05-08 00:27 | -54.88476 | -68.35056 | 12048 ft | 310 kts | 40° |
| 2026-05-08 00:27 | -54.86845 | -68.32736 | 11944 ft | 298 kts | 40° |
| 2026-05-08 00:27 | -54.85310 | -68.30395 | 11771 ft | 288 kts | 51° |
| 2026-05-08 00:27 | -54.84416 | -68.27394 | 11524 ft | 279 kts | 79° |
| 2026-05-08 00:28 | -54.84302 | -68.24115 | 11240 ft | 274 kts | 98° |
| 2026-05-08 00:28 | -54.84646 | -68.20863 | 10918 ft | 274 kts | 103° |
| 2026-05-08 00:28 | -54.85051 | -68.17637 | 10612 ft | 273 kts | 103° |
| 2026-05-08 00:28 | -54.85461 | -68.14416 | 10335 ft | 272 kts | 103° |
| 2026-05-08 00:29 | -54.85865 | -68.11205 | 10065 ft | 271 kts | 103° |
| 2026-05-08 00:29 | -54.86261 | -68.08017 | 9746 ft | 270 kts | 103° |
| 2026-05-08 00:29 | -54.86648 | -68.04872 | 9113 ft | 269 kts | 102° |
| 2026-05-08 00:29 | -54.87039 | -68.01665 | 8402 ft | 267 kts | 102° |
| 2026-05-08 00:30 | -54.87415 | -67.98561 | 7722 ft | 264 kts | 102° |
| 2026-05-08 00:30 | -54.87788 | -67.95458 | 7021 ft | 261 kts | 102° |
| 2026-05-08 00:30 | -54.88157 | -67.92389 | 6258 ft | 258 kts | 102° |
| 2026-05-08 00:30 | -54.88523 | -67.89321 | 5402 ft | 260 kts | 102° |
| 2026-05-08 00:31 | -54.88889 | -67.86242 | 4599 ft | 259 kts | 102° |
| 2026-05-08 00:31 | -54.89231 | -67.83343 | 4612 ft | 241 kts | 103° |
| 2026-05-08 00:31 | -54.89374 | -67.80428 | 4630 ft | 245 kts | 82° |
| 2026-05-08 00:31 | -54.88691 | -67.77725 | 4675 ft | 248 kts | 54° |
| 2026-05-08 00:32 | -54.87323 | -67.75892 | 4688 ft | 253 kts | 26° |
| 2026-05-08 00:32 | -54.86201 | -67.75374 | 4685 ft | 248 kts | 7° |
| 2026-05-08 00:32 | -54.84098 | -67.76260 | 4647 ft | 225 kts | 327° |
| 2026-05-08 00:32 | -54.83358 | -67.77433 | 4618 ft | 212 kts | 308° |
| 2026-05-08 00:33 | -54.82678 | -67.79545 | 4596 ft | 191 kts | 290° |
| 2026-05-08 00:33 | -54.82398 | -67.81621 | 4555 ft | 172 kts | 265° |
| 2026-05-08 00:33 | -54.82503 | -67.83672 | 4573 ft | 172 kts | 264° |
| 2026-05-08 00:33 | -54.82582 | -67.85727 | 4580 ft | 170 kts | 264° |
| 2026-05-08 00:34 | -54.82663 | -67.87787 | 4617 ft | 172 kts | 264° |
| 2026-05-08 00:34 | -54.82750 | -67.89824 | 4615 ft | 171 kts | 263° |
| 2026-05-08 00:34 | -54.82853 | -67.91898 | 4621 ft | 170 kts | 263° |
| 2026-05-08 00:34 | -54.82938 | -67.93855 | 4404 ft | 158 kts | 264° |
| 2026-05-08 00:35 | -54.83015 | -67.95743 | 4214 ft | 157 kts | 263° |
| 2026-05-08 00:35 | -54.83090 | -67.97610 | 3981 ft | 157 kts | 263° |
| 2026-05-08 00:35 | -54.83165 | -67.99502 | 3742 ft | 157 kts | 262° |
| 2026-05-08 00:35 | -54.83237 | -68.01390 | 3487 ft | 157 kts | 262° |
| 2026-05-08 00:36 | -54.83309 | -68.03268 | 3254 ft | 156 kts | 262° |
| 2026-05-08 00:36 | -54.83383 | -68.05153 | 3020 ft | 157 kts | 262° |
| 2026-05-08 00:36 | -54.83458 | -68.07044 | 2766 ft | 156 kts | 263° |
| 2026-05-08 00:36 | -54.83528 | -68.08918 | 2520 ft | 155 kts | 264° |
| 2026-05-08 00:37 | -54.83601 | -68.10775 | 2289 ft | 153 kts | 265° |
| 2026-05-08 00:37 | -54.83673 | -68.12611 | 2053 ft | 152 kts | 265° |
| 2026-05-08 00:37 | -54.83743 | -68.14431 | 1818 ft | 150 kts | 266° |
| 2026-05-08 00:38 | -54.83881 | -68.17998 | 1362 ft | 146 kts | 266° |
| 2026-05-08 00:38 | -54.83949 | -68.19743 | 1140 ft | 144 kts | 267° |
| 2026-05-08 00:38 | -54.84016 | -68.21481 | 912 ft | 144 kts | 267° |
| 2026-05-08 00:38 | -54.84083 | -68.23185 | 693 ft | 143 kts | 267° |
| 2026-05-08 00:39 | -54.84152 | -68.24901 | 460 ft | 143 kts | 266° |
| 2026-05-08 00:39 | -54.84230 | -68.26628 | 231 ft | 145 kts | 267° |
| 2026-05-08 00:39 | -54.84290 | -68.28351 | 102 ft | 140 kts | 267° |
| 2026-05-08 00:39 | -54.84347 | -68.29967 | 87 ft | 123 kts | 266° |
| 2026-05-08 00:40 | -54.84391 | -68.31046 | 89 ft | 32 kts | 266° |
| 2026-05-08 00:40 | -54.84388 | -68.31262 | 89 ft | 7 kts | 297° |
| 2026-05-08 00:40 | -54.84346 | -68.31312 | 89 ft | 8 kts | 349° |
| 2026-05-08 00:40 | -54.84278 | -68.31324 | 87 ft | 11 kts | 355° |
| 2026-05-08 00:41 | -54.84204 | -68.31330 | 87 ft | 11 kts | 358° |
| 2026-05-08 00:41 | -54.84130 | -68.31316 | 87 ft | 11 kts | 28° |
| 2026-05-08 00:41 | -54.84102 | -68.31219 | 87 ft | 6 kts | 72° |
| 2026-05-08 00:41 | -54.84071 | -68.31175 | 87 ft | 6 kts | 18° |
| 2026-05-08 00:42 | -54.84051 | -68.31175 | 87 ft | 0 kts | 356° |
| 2026-05-08 00:43 | -54.84044 | -68.31175 | 91 ft | 2 kts | 0° |
| 2026-05-08 00:43 | -54.84025 | -68.31179 | 87 ft | 0 kts | 351° |